Time;durP1;ratioP1;P1;durP2;ratioP2;P2;SDS_P1;SDS_P2;PMS_P1;PMS_P2;Temp;Humidity;BMP_temperature;BMP_pressure;BME280_temperature;BME280_humidity;BME280_pressure;Samples;Min_cycle;Max_cycle;Signal;HPM_P1;HPM_P2
2020/12/03 00:00:44;;;;;;;26.67;10.68;;;;;;;;;;5093435;28;20027;-80
2020/12/03 00:03:15;;;;;;;20.63;8.57;;;;;;;;;;5090445;28;20036;-79
2020/12/03 00:05:43;;;;;;;23.20;9.57;;;;;;;;;;5093283;28;20028;-80
2020/12/03 00:08:10;;;;;;;36.50;12.13;;;;;;;;;;5093892;28;20028;-80
2020/12/03 00:10:36;;;;;;;29.38;11.27;;;;;;;;;;5094019;28;20109;-80
2020/12/03 00:13:08;;;;;;;25.23;10.55;;;;;;;;;;5092982;28;20392;-80
2020/12/03 00:15:35;;;;;;;21.10;10.07;;;;;;;;;;5091780;28;20024;-79
2020/12/03 00:18:01;;;;;;;26.67;9.75;;;;;;;;;;5091793;28;20063;-80
2020/12/03 00:20:28;;;;;;;33.45;11.40;;;;;;;;;;5096407;28;20019;-79
2020/12/03 00:22:54;;;;;;;23.83;12.02;;;;;;;;;;5098219;28;20024;-80
2020/12/03 00:25:20;;;;;;;30.08;11.98;;;;;;;;;;5096514;28;20028;-80
2020/12/03 00:27:50;;;;;;;23.75;9.60;;;;;;;;;;5097277;28;20032;-79
2020/12/03 00:30:16;;;;;;;30.42;10.75;;;;;;;;;;5095695;28;20393;-80
2020/12/03 00:32:43;;;;;;;23.27;10.10;;;;;;;;;;5096759;28;20123;-80
2020/12/03 00:35:09;;;;;;;25.10;10.43;;;;;;;;;;5096964;28;20473;-80
2020/12/03 00:37:35;;;;;;;28.35;9.85;;;;;;;;;;5097027;28;20039;-80
2020/12/03 00:40:02;;;;;;;32.17;10.98;;;;;;;;;;5097075;28;20072;-81
2020/12/03 00:42:28;;;;;;;27.13;11.15;;;;;;;;;;5098915;28;20020;-80
2020/12/03 00:44:55;;;;;;;25.40;9.80;;;;;;;;;;5096553;28;20477;-80
2020/12/03 00:47:21;;;;;;;23.98;9.25;;;;;;;;;;5098298;28;20485;-80
2020/12/03 00:49:47;;;;;;;30.77;10.90;;;;;;;;;;5098867;28;20123;-80
2020/12/03 00:52:13;;;;;;;28.13;9.98;;;;;;;;;;5117931;28;20042;-80
2020/12/03 00:54:40;;;;;;;26.42;10.38;;;;;;;;;;5098683;28;20056;-80
2020/12/03 00:57:07;;;;;;;24.13;9.40;;;;;;;;;;5116734;28;20027;-80
2020/12/03 00:59:36;;;;;;;36.60;11.57;;;;;;;;;;5117715;28;20380;-80
2020/12/03 01:02:04;;;;;;;26.23;9.23;;;;;;;;;;5098585;28;20481;-80
2020/12/03 01:04:30;;;;;;;18.25;8.32;;;;;;;;;;5099151;28;20519;-81
2020/12/03 01:06:57;;;;;;;25.83;10.02;;;;;;;;;;5098369;28;20058;-79
2020/12/03 01:09:23;;;;;;;22.80;9.15;;;;;;;;;;5098382;28;20027;-83
2020/12/03 01:11:49;;;;;;;28.67;9.73;;;;;;;;;;5116647;28;20059;-82
2020/12/03 01:14:16;;;;;;;19.95;8.60;;;;;;;;;;5116571;28;20023;-82
2020/12/03 01:16:42;;;;;;;29.70;8.82;;;;;;;;;;5116488;28;20044;-82
2020/12/03 01:19:08;;;;;;;28.17;9.07;;;;;;;;;;5116484;28;20380;-83
2020/12/03 01:21:35;;;;;;;27.15;9.18;;;;;;;;;;5098929;28;20420;-80
2020/12/03 01:24:01;;;;;;;29.40;10.05;;;;;;;;;;5098004;28;20106;-81
2020/12/03 01:26:27;;;;;;;29.55;9.77;;;;;;;;;;5099138;28;20027;-79
2020/12/03 01:28:54;;;;;;;28.65;11.18;;;;;;;;;;5116314;28;20019;-83
2020/12/03 01:31:20;;;;;;;22.40;9.57;;;;;;;;;;5115235;28;20059;-83
2020/12/03 01:33:46;;;;;;;19.92;8.88;;;;;;;;;;5116407;28;20030;-83
2020/12/03 01:36:14;;;;;;;22.73;8.63;;;;;;;;;;5116360;28;20020;-83
2020/12/03 01:38:42;;;;;;;24.75;9.77;;;;;;;;;;5097828;28;20031;-83
2020/12/03 01:41:08;;;;;;;22.25;8.40;;;;;;;;;;5098648;28;20055;-82
2020/12/03 01:43:40;;;;;;;17.08;7.60;;;;;;;;;;5116188;28;20027;-84
2020/12/03 01:46:06;;;;;;;20.25;7.90;;;;;;;;;;5098373;28;20027;-82
2020/12/03 01:48:46;;;;;;;20.00;8.18;;;;;;;;;;5097415;28;20030;-82
2020/12/03 01:51:16;;;;;;;23.38;9.10;;;;;;;;;;5117254;28;20044;-83
2020/12/03 01:53:42;;;;;;;19.27;8.23;;;;;;;;;;5097779;28;20024;-82
2020/12/03 01:56:22;;;;;;;22.45;7.97;;;;;;;;;;5118564;28;20024;-82
2020/12/03 01:58:48;;;;;;;24.15;8.48;;;;;;;;;;5097578;28;20447;-80
2020/12/03 02:01:15;;;;;;;20.95;8.18;;;;;;;;;;5097278;28;20394;-83
2020/12/03 02:03:46;;;;;;;17.33;7.80;;;;;;;;;;5116648;28;20126;-82
2020/12/03 02:06:16;;;;;;;25.33;8.98;;;;;;;;;;5097457;28;20031;-82
2020/12/03 02:08:43;;;;;;;20.13;8.38;;;;;;;;;;5116671;28;20083;-82
2020/12/03 02:11:09;;;;;;;17.63;7.40;;;;;;;;;;5115635;28;20024;-80
2020/12/03 02:13:35;;;;;;;24.25;8.73;;;;;;;;;;5116453;28;20036;-80
2020/12/03 02:16:01;;;;;;;22.98;8.70;;;;;;;;;;5101515;28;20028;-81
2020/12/03 02:18:28;;;;;;;20.10;8.32;;;;;;;;;;5097246;28;20027;-83
2020/12/03 02:20:54;;;;;;;20.73;8.98;;;;;;;;;;5116023;28;20016;-83
2020/12/03 02:23:21;;;;;;;21.48;8.27;;;;;;;;;;5115421;28;20472;-82
2020/12/03 02:25:47;;;;;;;22.92;9.15;;;;;;;;;;5115533;28;20024;-79
2020/12/03 02:28:13;;;;;;;22.55;8.68;;;;;;;;;;5116444;28;20034;-81
2020/12/03 02:30:40;;;;;;;20.27;8.90;;;;;;;;;;5115317;28;20503;-78
2020/12/03 02:33:06;;;;;;;20.45;8.18;;;;;;;;;;5115689;28;20114;-79
2020/12/03 02:35:32;;;;;;;25.88;9.15;;;;;;;;;;5096918;28;20164;-81
2020/12/03 02:37:58;;;;;;;19.10;8.43;;;;;;;;;;5115057;28;20028;-78
2020/12/03 02:40:25;;;;;;;27.73;9.15;;;;;;;;;;5096705;28;20027;-82
2020/12/03 02:42:51;;;;;;;22.95;9.15;;;;;;;;;;5116028;28;20034;-83
2020/12/03 02:45:18;;;;;;;21.73;8.05;;;;;;;;;;5114869;28;20027;-79
2020/12/03 02:47:44;;;;;;;19.85;8.40;;;;;;;;;;5116847;28;20077;-83
2020/12/03 02:50:10;;;;;;;22.95;9.05;;;;;;;;;;5114452;28;20080;-83
2020/12/03 02:52:36;;;;;;;20.45;8.35;;;;;;;;;;5114655;28;20043;-81
2020/12/03 02:55:03;;;;;;;22.92;9.82;;;;;;;;;;5114951;28;20026;-83
2020/12/03 02:57:30;;;;;;;19.45;8.10;;;;;;;;;;5096421;28;20396;-80
2020/12/03 02:59:56;;;;;;;27.10;9.57;;;;;;;;;;5096118;28;20026;-83
2020/12/03 03:02:22;;;;;;;27.67;9.00;;;;;;;;;;5115524;28;20104;-82
2020/12/03 03:04:49;;;;;;;15.38;7.10;;;;;;;;;;5114369;28;20060;-82
2020/12/03 03:07:15;;;;;;;20.80;8.27;;;;;;;;;;5096296;28;20032;-83
2020/12/03 03:09:41;;;;;;;22.70;8.50;;;;;;;;;;5114513;28;20059;-82
2020/12/03 03:12:08;;;;;;;21.90;7.97;;;;;;;;;;5114658;28;20039;-81
2020/12/03 03:14:34;;;;;;;19.38;7.20;;;;;;;;;;5115100;28;20025;-81
2020/12/03 03:17:01;;;;;;;15.52;6.82;;;;;;;;;;5095952;28;20480;-79
2020/12/03 03:19:27;;;;;;;15.27;5.93;;;;;;;;;;5115058;28;20135;-82
2020/12/03 03:21:53;;;;;;;21.13;7.53;;;;;;;;;;5116551;28;20027;-79
2020/12/03 03:24:20;;;;;;;22.58;7.70;;;;;;;;;;5114028;28;20031;-80
2020/12/03 03:26:46;;;;;;;18.17;6.60;;;;;;;;;;5097594;28;20389;-82
2020/12/03 03:29:13;;;;;;;18.02;7.20;;;;;;;;;;5115750;28;20035;-82
2020/12/03 03:31:39;;;;;;;17.73;7.40;;;;;;;;;;5114839;28;20081;-82
2020/12/03 03:34:06;;;;;;;18.13;6.68;;;;;;;;;;5113926;28;20094;-81
2020/12/03 03:36:32;;;;;;;16.58;7.22;;;;;;;;;;5113934;28;20027;-83
2020/12/03 03:38:59;;;;;;;16.65;6.53;;;;;;;;;;5118651;28;20028;-81
2020/12/03 03:41:25;;;;;;;19.42;6.97;;;;;;;;;;5113820;28;20142;-79
2020/12/03 03:43:51;;;;;;;18.73;7.18;;;;;;;;;;5095341;28;20038;-81
2020/12/03 03:46:18;;;;;;;17.42;7.63;;;;;;;;;;5113791;28;20092;-79
2020/12/03 03:48:44;;;;;;;17.38;6.60;;;;;;;;;;5115063;28;20047;-81
2020/12/03 03:51:11;;;;;;;15.07;5.82;;;;;;;;;;5091831;28;20048;-81
2020/12/03 03:53:37;;;;;;;15.07;6.88;;;;;;;;;;5095560;28;20098;-81
2020/12/03 03:56:03;;;;;;;20.63;8.00;;;;;;;;;;5092970;28;20059;-82
2020/12/03 03:58:30;;;;;;;20.33;7.63;;;;;;;;;;5093430;28;20020;-78
2020/12/03 04:00:56;;;;;;;17.40;7.22;;;;;;;;;;5092838;28;20027;-82
2020/12/03 04:03:23;;;;;;;21.58;6.07;;;;;;;;;;5093494;28;20028;-79
2020/12/03 04:05:51;;;;;;;19.00;6.60;;;;;;;;;;5093312;28;20027;-81
2020/12/03 04:08:18;;;;;;;20.63;7.30;;;;;;;;;;5093209;28;20028;-79
2020/12/03 04:10:45;;;;;;;22.02;6.13;;;;;;;;;;5094049;28;20025;-81
2020/12/03 04:13:12;;;;;;;16.55;7.07;;;;;;;;;;5093032;28;20458;-82
2020/12/03 04:15:38;;;;;;;18.45;6.57;;;;;;;;;;5095057;28;20149;-82
2020/12/03 04:18:05;;;;;;;15.90;6.07;;;;;;;;;;5094062;28;20032;-83
2020/12/03 04:20:31;;;;;;;18.30;7.15;;;;;;;;;;5093246;28;20016;-79
2020/12/03 04:22:58;;;;;;;16.38;6.72;;;;;;;;;;5093051;28;20464;-79
2020/12/03 04:25:24;;;;;;;14.65;6.22;;;;;;;;;;5094833;28;20061;-82
2020/12/03 04:27:50;;;;;;;17.00;6.63;;;;;;;;;;5091793;28;20028;-81
2020/12/03 04:30:17;;;;;;;14.65;6.75;;;;;;;;;;5095106;28;20078;-80
2020/12/03 04:32:43;;;;;;;17.23;6.35;;;;;;;;;;5092910;28;20496;-82
2020/12/03 04:35:11;;;;;;;21.17;6.68;;;;;;;;;;5093046;28;20023;-79
2020/12/03 04:37:37;;;;;;;17.75;6.93;;;;;;;;;;5094398;28;20481;-81
2020/12/03 04:40:04;;;;;;;14.60;5.70;;;;;;;;;;5093175;28;20096;-82
2020/12/03 04:42:33;;;;;;;13.85;6.20;;;;;;;;;;5091728;28;20111;-80
2020/12/03 04:45:04;;;;;;;17.42;6.50;;;;;;;;;;5093572;28;20028;-81
2020/12/03 04:47:40;;;;;;;14.00;5.93;;;;;;;;;;5091378;28;20020;-81
2020/12/03 04:50:12;;;;;;;18.42;6.63;;;;;;;;;;5097809;28;20039;-82
2020/12/03 04:52:49;;;;;;;17.70;6.22;;;;;;;;;;5094869;28;20043;-81
2020/12/03 04:55:15;;;;;;;14.85;6.55;;;;;;;;;;5094865;28;20046;-81
2020/12/03 04:57:42;;;;;;;18.77;5.97;;;;;;;;;;5113265;28;20027;-83
2020/12/03 05:00:17;;;;;;;15.23;6.90;;;;;;;;;;5095780;28;20020;-81
2020/12/03 05:02:58;;;;;;;17.27;5.68;;;;;;;;;;5097716;28;20115;-81
2020/12/03 05:05:34;;;;;;;14.25;6.32;;;;;;;;;;5113716;28;20046;-82
2020/12/03 05:08:12;;;;;;;16.88;6.00;;;;;;;;;;5100292;28;20030;-81
2020/12/03 05:10:40;;;;;;;16.42;6.28;;;;;;;;;;5117136;28;20077;-82
2020/12/03 05:13:15;;;;;;;14.88;6.05;;;;;;;;;;5116949;28;20047;-82
2020/12/03 05:15:42;;;;;;;19.83;5.85;;;;;;;;;;5098512;28;20416;-82
2020/12/03 05:18:26;;;;;;;17.30;6.10;;;;;;;;;;5118522;28;20070;-80
2020/12/03 05:20:54;;;;;;;15.40;5.97;;;;;;;;;;5099010;28;20031;-81
2020/12/03 05:23:22;;;;;;;16.90;6.03;;;;;;;;;;5098114;28;20357;-82
2020/12/03 05:25:50;;;;;;;15.10;5.82;;;;;;;;;;5118862;28;20023;-82
2020/12/03 05:28:26;;;;;;;16.27;6.05;;;;;;;;;;5098489;28;20028;-78
2020/12/03 05:30:55;;;;;;;13.60;5.03;;;;;;;;;;5098381;28;20084;-80
2020/12/03 05:33:22;;;;;;;15.60;5.57;;;;;;;;;;5117630;28;20057;-79
2020/12/03 05:35:49;;;;;;;15.88;6.18;;;;;;;;;;5098242;28;20055;-81
2020/12/03 05:38:18;;;;;;;19.45;6.80;;;;;;;;;;5116313;28;20024;-78
2020/12/03 05:40:46;;;;;;;13.18;5.50;;;;;;;;;;5116338;28;20019;-80
2020/12/03 05:43:12;;;;;;;14.63;5.72;;;;;;;;;;5117186;28;20101;-81
2020/12/03 05:45:38;;;;;;;14.20;5.50;;;;;;;;;;5097985;28;20031;-80
2020/12/03 05:48:05;;;;;;;12.20;5.63;;;;;;;;;;5097893;28;20027;-77
2020/12/03 05:50:35;;;;;;;18.70;6.32;;;;;;;;;;5097526;28;20445;-80
2020/12/03 05:53:14;;;;;;;14.43;5.47;;;;;;;;;;5116380;28;20042;-78
2020/12/03 05:55:40;;;;;;;15.57;5.47;;;;;;;;;;5098131;28;20131;-78
2020/12/03 05:58:26;;;;;;;15.85;6.20;;;;;;;;;;5115776;28;20038;-77
2020/12/03 06:01:05;;;;;;;15.23;6.05;;;;;;;;;;5098529;28;20058;-76
2020/12/03 06:03:37;;;;;;;14.70;5.22;;;;;;;;;;5097887;28;20020;-80
2020/12/03 06:06:22;;;;;;;14.70;5.25;;;;;;;;;;5098205;28;20544;-81
2020/12/03 06:09:10;;;;;;;13.80;6.40;;;;;;;;;;5097954;27;20027;-77
2020/12/03 06:11:49;;;;;;;17.27;5.40;;;;;;;;;;5106475;28;20146;-78
2020/12/03 06:14:15;;;;;;;11.65;5.30;;;;;;;;;;5136032;27;20034;-71
2020/12/03 06:16:41;;;;;;;15.07;6.13;;;;;;;;;;5135719;27;20102;-74
2020/12/03 06:19:13;;;;;;;17.67;6.07;;;;;;;;;;5117090;27;20123;-74
2020/12/03 06:21:58;;;;;;;16.27;6.07;;;;;;;;;;5117473;27;20027;-75
2020/12/03 06:24:35;;;;;;;14.18;4.78;;;;;;;;;;5135937;27;20027;-74
2020/12/03 06:27:14;;;;;;;16.95;6.00;;;;;;;;;;5135894;27;20429;-75
2020/12/03 06:29:40;;;;;;;14.27;5.75;;;;;;;;;;5135811;27;20058;-75
2020/12/03 06:32:25;;;;;;;10.73;4.63;;;;;;;;;;5117026;27;20084;-74
2020/12/03 06:35:03;;;;;;;15.63;5.65;;;;;;;;;;5117018;27;20038;-75
2020/12/03 06:37:40;;;;;;;15.70;5.78;;;;;;;;;;5117125;27;20118;-73
2020/12/03 06:40:09;;;;;;;17.33;6.05;;;;;;;;;;5117065;27;20042;-74
2020/12/03 06:42:40;;;;;;;11.60;5.07;;;;;;;;;;5105548;28;20361;-74
2020/12/03 06:45:09;;;;;;;12.40;5.78;;;;;;;;;;5096414;28;20088;-74
2020/12/03 06:47:55;;;;;;;15.98;6.10;;;;;;;;;;5096588;28;20051;-76
2020/12/03 06:50:24;;;;;;;17.60;7.05;;;;;;;;;;5096399;28;20147;-77
2020/12/03 06:52:56;;;;;;;13.27;4.80;;;;;;;;;;5114805;28;20035;-77
2020/12/03 06:55:28;;;;;;;17.48;5.80;;;;;;;;;;5096576;28;20055;-76
2020/12/03 06:58:13;;;;;;;14.70;5.85;;;;;;;;;;5114655;28;20031;-76
2020/12/03 07:00:45;;;;;;;18.50;5.50;;;;;;;;;;5114583;28;20026;-76
2020/12/03 07:03:23;;;;;;;12.23;4.93;;;;;;;;;;5114577;28;20417;-77
2020/12/03 07:06:08;;;;;;;11.88;5.00;;;;;;;;;;5114102;28;20094;-77
2020/12/03 07:08:34;;;;;;;9.40;3.97;;;;;;;;;;5096195;28;20024;-76
2020/12/03 07:11:09;;;;;;;12.80;5.15;;;;;;;;;;5114459;28;20436;-76
2020/12/03 07:13:41;;;;;;;15.20;5.38;;;;;;;;;;5114094;28;20388;-76
2020/12/03 07:16:22;;;;;;;17.90;6.07;;;;;;;;;;5095951;28;20111;-76
2020/12/03 07:19:10;;;;;;;18.70;5.82;;;;;;;;;;5113991;28;20030;-76
2020/12/03 07:21:42;;;;;;;13.88;5.25;;;;;;;;;;5115010;27;20467;-75
2020/12/03 07:24:29;;;;;;;13.82;6.13;;;;;;;;;;5114516;27;20023;-77
2020/12/03 07:27:07;;;;;;;18.92;5.68;;;;;;;;;;5114384;28;20020;-75
2020/12/03 07:29:52;;;;;;;17.67;5.05;;;;;;;;;;5112967;28;20016;-75
2020/12/03 07:32:26;;;;;;;16.02;4.88;;;;;;;;;;5095368;28;20032;-76
2020/12/03 07:34:58;;;;;;;15.07;5.93;;;;;;;;;;5113986;28;20032;-75
2020/12/03 07:37:42;;;;;;;16.85;6.32;;;;;;;;;;5113912;28;20016;-75
2020/12/03 07:40:09;;;;;;;18.00;6.13;;;;;;;;;;5113881;28;20537;-75
2020/12/03 07:42:35;;;;;;;18.10;6.45;;;;;;;;;;5113663;28;20030;-75
2020/12/03 07:45:21;;;;;;;14.38;5.60;;;;;;;;;;5095545;28;20123;-76
2020/12/03 07:48:05;;;;;;;13.98;6.25;;;;;;;;;;5099891;27;20110;-75
2020/12/03 07:50:31;;;;;;;;;;;;;;;;;;5113552;28;20047;-76
2020/12/03 07:53:18;;;;;;;14.90;5.70;;;;;;;;;;5095376;28;20386;-75
2020/12/03 07:55:44;;;;;;;21.73;6.35;;;;;;;;;;5113498;28;20147;-76
2020/12/03 07:58:28;;;;;;;14.88;6.22;;;;;;;;;;5113513;28;20019;-77
2020/12/03 08:00:54;;;;;;;16.15;6.32;;;;;;;;;;5095335;28;20106;-77
2020/12/03 08:03:33;;;;;;;12.48;5.38;;;;;;;;;;5113615;28;20039;-77
2020/12/03 08:06:13;;;;;;;14.07;6.00;;;;;;;;;;5095067;28;20024;-77
2020/12/03 08:08:40;;;;;;;15.18;5.55;;;;;;;;;;5094985;28;20023;-75
2020/12/03 08:11:13;;;;;;;13.32;5.32;;;;;;;;;;5095123;28;20476;-75
2020/12/03 08:13:43;;;;;;;16.55;5.72;;;;;;;;;;5101870;28;20032;-73
2020/12/03 08:16:24;;;;;;;15.15;6.55;;;;;;;;;;5113323;28;20047;-74
2020/12/03 08:19:16;;;;;;;18.80;5.85;;;;;;;;;;5095048;28;20499;-73
2020/12/03 08:21:42;;;;;;;10.90;4.88;;;;;;;;;;5094706;28;20077;-75
2020/12/03 08:24:23;;;;;;;15.55;5.82;;;;;;;;;;5095004;28;20035;-76
2020/12/03 08:26:50;;;;;;;16.45;6.43;;;;;;;;;;5095044;28;20027;-76
2020/12/03 08:29:22;;;;;;;14.25;5.95;;;;;;;;;;5113141;28;20430;-76
2020/12/03 08:31:48;;;;;;;13.80;5.03;;;;;;;;;;5078000;28;20028;-76
2020/12/03 08:34:14;;;;;;;19.23;5.97;;;;;;;;;;5094932;28;20039;-77
2020/12/03 08:36:40;;;;;;;13.70;5.63;;;;;;;;;;5113169;28;20362;-76
2020/12/03 08:39:06;;;;;;;17.58;5.47;;;;;;;;;;5094778;28;20453;-76
2020/12/03 08:41:33;;;;;;;16.15;5.40;;;;;;;;;;5097611;28;20023;-77
2020/12/03 08:44:02;;;;;;;15.70;6.57;;;;;;;;;;5098883;28;20034;-76
2020/12/03 08:46:33;;;;;;;15.23;5.95;;;;;;;;;;5098781;28;20064;-76
2020/12/03 08:49:00;;;;;;;14.20;5.60;;;;;;;;;;5098851;28;20028;-75
2020/12/03 08:51:26;;;;;;;15.80;5.00;;;;;;;;;;5116449;28;20411;-74
2020/12/03 08:53:53;;;;;;;13.63;4.85;;;;;;;;;;5116887;28;20544;-75
2020/12/03 08:56:36;;;;;;;14.48;5.28;;;;;;;;;;5098631;28;20020;-75
2020/12/03 08:59:03;;;;;;;24.45;6.30;;;;;;;;;;5098832;28;20062;-75
2020/12/03 09:01:31;;;;;;;11.18;4.55;;;;;;;;;;5098726;28;20020;-74
2020/12/03 09:03:59;;;;;;;12.23;5.72;;;;;;;;;;5117190;28;20019;-75
2020/12/03 09:06:31;;;;;;;22.02;10.02;;;;;;;;;;5098128;28;20031;-75
2020/12/03 09:08:58;;;;;;;15.80;7.00;;;;;;;;;;5098460;28;20439;-77
2020/12/03 09:11:25;;;;;;;13.75;5.50;;;;;;;;;;5116651;28;20104;-75
2020/12/03 09:13:57;;;;;;;17.83;6.18;;;;;;;;;;5098367;28;20035;-74
2020/12/03 09:16:24;;;;;;;17.73;5.57;;;;;;;;;;5098185;28;20487;-76
2020/12/03 09:18:50;;;;;;;16.02;5.57;;;;;;;;;;5116491;28;20032;-75
2020/12/03 09:21:24;;;;;;;14.57;5.47;;;;;;;;;;5097952;28;20020;-75
2020/12/03 09:23:51;;;;;;;15.90;6.15;;;;;;;;;;5098153;28;20388;-76
2020/12/03 09:26:21;;;;;;;21.52;8.40;;;;;;;;;;5116389;28;20130;-75
2020/12/03 09:28:48;;;;;;;18.38;6.38;;;;;;;;;;5116330;28;20024;-74
2020/12/03 09:31:15;;;;;;;25.20;9.73;;;;;;;;;;5081386;28;20024;-75
2020/12/03 09:33:45;;;;;;;22.60;7.90;;;;;;;;;;5115986;27;20031;-73
2020/12/03 09:36:11;;;;;;;13.70;5.80;;;;;;;;;;5100356;28;20131;-76
2020/12/03 09:38:38;;;;;;;17.30;7.93;;;;;;;;;;5097924;28;20380;-75
2020/12/03 09:41:06;;;;;;;16.30;5.47;;;;;;;;;;5097944;28;20080;-75
2020/12/03 09:43:33;;;;;;;16.02;6.05;;;;;;;;;;5116078;28;20031;-74
2020/12/03 09:46:05;;;;;;;14.77;5.43;;;;;;;;;;5097686;28;20027;-75
2020/12/03 09:48:33;;;;;;;15.80;6.68;;;;;;;;;;5115736;28;20051;-76
2020/12/03 09:51:02;;;;;;;19.20;6.63;;;;;;;;;;5097436;28;20046;-75
2020/12/03 09:53:29;;;;;;;16.30;6.50;;;;;;;;;;5114664;28;20067;-76
2020/12/03 09:56:00;;;;;;;19.23;6.65;;;;;;;;;;5097467;28;20069;-75
2020/12/03 09:58:26;;;;;;;14.85;5.72;;;;;;;;;;5097415;28;20031;-76
2020/12/03 10:00:53;;;;;;;15.40;6.75;;;;;;;;;;5097324;28;20370;-77
2020/12/03 10:03:31;;;;;;;16.88;6.20;;;;;;;;;;5132930;27;20072;-76
2020/12/03 10:06:17;;;;;;;15.73;5.97;;;;;;;;;;5123368;27;20024;-76
2020/12/03 10:09:03;;;;;;;18.25;7.00;;;;;;;;;;5097306;28;20547;-77
2020/12/03 10:11:45;;;;;;;13.68;6.00;;;;;;;;;;5096942;28;20024;-77
2020/12/03 10:14:30;;;;;;;12.57;5.93;;;;;;;;;;5115459;28;20026;-77
2020/12/03 10:17:04;;;;;;;22.77;6.10;;;;;;;;;;5115528;28;20074;-76
2020/12/03 10:19:31;;;;;;;18.92;7.05;;;;;;;;;;5097138;28;20480;-76
2020/12/03 10:22:00;;;;;;;15.45;7.60;;;;;;;;;;5096959;28;20088;-76
2020/12/03 10:24:27;;;;;;;17.58;6.80;;;;;;;;;;5096840;28;20034;-76
2020/12/03 10:27:00;;;;;;;18.67;7.20;;;;;;;;;;5115245;28;20020;-77
2020/12/03 10:29:39;;;;;;;20.88;7.30;;;;;;;;;;5096981;28;20024;-78
2020/12/03 10:32:16;;;;;;;17.38;7.22;;;;;;;;;;5115061;28;20035;-77
2020/12/03 10:34:47;;;;;;;18.08;6.03;;;;;;;;;;5096594;28;20030;-77
2020/12/03 10:37:27;;;;;;;16.85;6.80;;;;;;;;;;5096787;28;20019;-74
2020/12/03 10:40:13;;;;;;;14.50;6.45;;;;;;;;;;5114781;28;20031;-77
2020/12/03 10:42:41;;;;;;;18.45;6.63;;;;;;;;;;5100968;28;20084;-77
2020/12/03 10:45:12;;;;;;;21.48;8.57;;;;;;;;;;5096588;28;20031;-74
2020/12/03 10:47:45;;;;;;;35.85;10.73;;;;;;;;;;5114688;28;20054;-79
2020/12/03 10:50:15;;;;;;;17.10;7.45;;;;;;;;;;5096318;28;20488;-78
2020/12/03 10:52:41;;;;;;;17.73;7.90;;;;;;;;;;5096289;28;20039;-75
2020/12/03 10:55:08;;;;;;;20.23;8.02;;;;;;;;;;5096399;28;20015;-74
2020/12/03 10:57:34;;;;;;;19.45;8.35;;;;;;;;;;5096412;28;20028;-77
2020/12/03 11:00:02;;;;;;;18.80;7.80;;;;;;;;;;5095891;28;20153;-76
2020/12/03 11:02:41;;;;;;;13.82;6.65;;;;;;;;;;5096383;28;20038;-75
2020/12/03 11:05:08;;;;;;;20.38;8.20;;;;;;;;;;5114067;28;20028;-76
2020/12/03 11:07:35;;;;;;;18.80;8.60;;;;;;;;;;5096096;28;20468;-76
2020/12/03 11:10:02;;;;;;;29.23;11.18;;;;;;;;;;5095926;28;20118;-77
2020/12/03 11:12:28;;;;;;;16.33;7.97;;;;;;;;;;5096299;28;20031;-75
2020/12/03 11:14:59;;;;;;;21.17;8.95;;;;;;;;;;5129240;27;20098;-77
2020/12/03 11:17:25;;;;;;;53.47;13.18;;;;;;;;;;5134899;27;20031;-77
2020/12/03 11:19:54;;;;;;;29.85;9.10;;;;;;;;;;5116235;27;20348;-78
2020/12/03 11:22:43;;;;;;;24.80;8.73;;;;;;;;;;5134498;27;20031;-76
2020/12/03 11:25:13;;;;;;;26.30;9.07;;;;;;;;;;5121573;27;20114;-77
2020/12/03 11:27:43;;;;;;;21.33;7.43;;;;;;;;;;5134548;27;20026;-77
2020/12/03 11:30:27;;;;;;;29.88;9.00;;;;;;;;;;5116004;27;20029;-77
2020/12/03 11:32:54;;;;;;;18.05;6.82;;;;;;;;;;5116133;27;20078;-77
2020/12/03 11:35:31;;;;;;;17.17;6.97;;;;;;;;;;5115657;27;20547;-75
2020/12/03 11:37:58;;;;;;;15.50;6.35;;;;;;;;;;5106297;28;20035;-77
2020/12/03 11:40:42;;;;;;;20.20;6.93;;;;;;;;;;5095430;28;20487;-77
2020/12/03 11:46:18;;;;;;;16.23;7.03;;;;;;;;;;5113969;28;20077;-76
2020/12/03 11:48:51;;;;;;;21.65;7.00;;;;;;;;;;5113569;28;20081;-77
2020/12/03 11:51:34;;;;;;;21.52;8.20;;;;;;;;;;5095031;28;20052;-77
2020/12/03 11:54:01;;;;;;;31.25;12.32;;;;;;;;;;5113736;28;20554;-77
2020/12/03 11:56:31;;;;;;;25.25;9.27;;;;;;;;;;5095337;28;20051;-76
2020/12/03 11:59:16;;;;;;;19.70;8.27;;;;;;;;;;5113556;28;20424;-78
2020/12/03 12:01:58;;;;;;;24.33;8.90;;;;;;;;;;5113318;28;20020;-78
2020/12/03 12:04:35;;;;;;;23.50;8.73;;;;;;;;;;5113874;28;20039;-78
2020/12/03 12:07:11;;;;;;;23.70;9.45;;;;;;;;;;5102601;27;20112;-74
2020/12/03 12:12:04;;;;;;;18.90;7.85;;;;;;;;;;5121314;28;20043;-76
2020/12/03 12:14:30;;;;;;;14.60;6.65;;;;;;;;;;5122827;27;20015;-76
2020/12/03 12:16:56;;;;;;;11.50;5.10;;;;;;;;;;5120359;28;20031;-76
2020/12/03 12:19:25;;;;;;;16.73;6.60;;;;;;;;;;5121873;28;20492;-77
2020/12/03 12:21:51;;;;;;;14.57;6.47;;;;;;;;;;5123996;28;20019;-75
2020/12/03 12:24:18;;;;;;;16.25;6.80;;;;;;;;;;5121164;28;20031;-75
2020/12/03 12:26:44;;;;;;;16.92;7.82;;;;;;;;;;5122282;28;20048;-76
2020/12/03 12:29:10;;;;;;;18.33;6.55;;;;;;;;;;5120308;28;20023;-76
2020/12/03 12:31:37;;;;;;;16.52;7.18;;;;;;;;;;5122942;27;20115;-76
2020/12/03 12:34:04;;;;;;;20.80;7.13;;;;;;;;;;5103473;28;20049;-76
2020/12/03 12:36:30;;;;;;;15.30;5.78;;;;;;;;;;5128805;28;20023;-75
2020/12/03 12:38:56;;;;;;;17.77;6.22;;;;;;;;;;5112972;28;20385;-75
2020/12/03 12:41:22;;;;;;;17.45;7.93;;;;;;;;;;5094810;28;20024;-75
2020/12/03 12:43:49;;;;;;;23.58;7.10;;;;;;;;;;5113041;28;20487;-75
2020/12/03 12:46:22;;;;;;;19.95;8.30;;;;;;;;;;5094518;28;20480;-74
2020/12/03 12:48:48;;;;;;;19.70;7.82;;;;;;;;;;5094857;28;20031;-76
2020/12/03 12:51:14;;;;;;;17.95;7.30;;;;;;;;;;5094655;28;20095;-73
2020/12/03 12:53:40;;;;;;;17.73;6.97;;;;;;;;;;5094721;28;20038;-76
2020/12/03 12:56:06;;;;;;;18.55;7.05;;;;;;;;;;5094887;28;20027;-75
2020/12/03 12:58:32;;;;;;;24.83;9.70;;;;;;;;;;5094587;28;20158;-75
2020/12/03 13:00:58;;;;;;;26.50;9.88;;;;;;;;;;5094677;28;20224;-73
2020/12/03 13:03:25;;;;;;;17.67;8.25;;;;;;;;;;5094718;28;20032;-77
2020/12/03 13:05:53;;;;;;;18.20;8.00;;;;;;;;;;5112769;28;20537;-73
2020/12/03 13:08:19;;;;;;;21.02;7.43;;;;;;;;;;5094698;28;20028;-72
2020/12/03 13:10:45;;;;;;;18.92;8.13;;;;;;;;;;5112581;28;20047;-73
2020/12/03 13:13:11;;;;;;;15.00;6.47;;;;;;;;;;5094640;28;20503;-75
2020/12/03 13:15:37;;;;;;;17.30;6.65;;;;;;;;;;5094465;28;20024;-75
2020/12/03 13:18:04;;;;;;;18.17;7.05;;;;;;;;;;5094538;28;20476;-76
2020/12/03 13:20:30;;;;;;;17.85;7.45;;;;;;;;;;5112705;28;20015;-76
2020/12/03 13:22:56;;;;;;;17.55;7.63;;;;;;;;;;5094325;28;20028;-77
2020/12/03 13:25:22;;;;;;;21.65;7.18;;;;;;;;;;5112819;28;20055;-74
2020/12/03 13:27:48;;;;;;;18.85;7.90;;;;;;;;;;5097175;28;20031;-74
2020/12/03 13:30:15;;;;;;;21.33;8.60;;;;;;;;;;5098060;28;20028;-76
2020/12/03 13:32:41;;;;;;;19.55;7.93;;;;;;;;;;5116041;28;20153;-76
2020/12/03 13:35:07;;;;;;;23.60;8.85;;;;;;;;;;5097755;28;20035;-76
2020/12/03 13:37:33;;;;;;;19.00;8.13;;;;;;;;;;5097920;28;20019;-75
2020/12/03 13:40:00;;;;;;;22.73;7.70;;;;;;;;;;5116130;28;20482;-75
2020/12/03 13:42:26;;;;;;;21.15;8.15;;;;;;;;;;5120527;27;20152;-76
2020/12/03 13:44:52;;;;;;;22.77;8.52;;;;;;;;;;5118198;27;20483;-74
2020/12/03 13:47:18;;;;;;;22.02;8.80;;;;;;;;;;5111747;28;20020;-76
2020/12/03 13:49:45;;;;;;;25.20;9.38;;;;;;;;;;5104313;28;20043;-76
2020/12/03 13:52:11;;;;;;;24.52;9.23;;;;;;;;;;5097480;28;20035;-75
2020/12/03 13:54:37;;;;;;;24.25;8.50;;;;;;;;;;5105363;28;20036;-76
2020/12/03 13:57:03;;;;;;;22.08;8.32;;;;;;;;;;5105675;27;20055;-76
2020/12/03 13:59:29;;;;;;;19.65;8.38;;;;;;;;;;5115500;27;20058;-73
2020/12/03 14:01:55;;;;;;;22.67;8.98;;;;;;;;;;5117550;27;20025;-74
2020/12/03 14:04:22;;;;;;;18.77;8.23;;;;;;;;;;5117694;27;20027;-73
2020/12/03 14:06:48;;;;;;;21.45;9.38;;;;;;;;;;5097577;28;20494;-75
2020/12/03 14:09:16;;;;;;;29.98;8.88;;;;;;;;;;5115604;28;20027;-74
2020/12/03 14:11:43;;;;;;;22.73;9.43;;;;;;;;;;5115364;28;20365;-74
2020/12/03 14:14:09;;;;;;;19.90;8.73;;;;;;;;;;5096972;28;20023;-74
2020/12/03 14:16:35;;;;;;;20.00;9.30;;;;;;;;;;5097185;28;20055;-74
2020/12/03 14:19:02;;;;;;;32.85;10.07;;;;;;;;;;5097127;28;20059;-74
2020/12/03 14:21:28;;;;;;;23.98;9.63;;;;;;;;;;5115201;28;20107;-74
2020/12/03 14:23:54;;;;;;;21.23;7.88;;;;;;;;;;5096868;28;20046;-74
2020/12/03 14:26:20;;;;;;;25.58;8.90;;;;;;;;;;5097001;28;20476;-75
2020/12/03 14:28:46;;;;;;;28.25;10.40;;;;;;;;;;5096605;28;20453;-74
2020/12/03 14:31:12;;;;;;;20.60;9.20;;;;;;;;;;5096780;28;20405;-74
2020/12/03 14:33:39;;;;;;;26.75;10.60;;;;;;;;;;5096696;28;20400;-74
2020/12/03 14:36:05;;;;;;;19.23;9.25;;;;;;;;;;5096639;28;20066;-75
2020/12/03 14:38:31;;;;;;;24.23;9.45;;;;;;;;;;5096076;28;20388;-74
2020/12/03 14:40:57;;;;;;;27.30;9.20;;;;;;;;;;5096548;28;20027;-73
2020/12/03 14:43:23;;;;;;;21.35;8.07;;;;;;;;;;5096664;28;20031;-75
2020/12/03 14:45:49;;;;;;;20.23;8.60;;;;;;;;;;5096549;28;20023;-74
2020/12/03 14:48:16;;;;;;;20.73;9.55;;;;;;;;;;5096486;28;20396;-75